Terminal Aerodrome Forecast
Issued by NWS Riverton, WY

Home | Current Version | Previous Version | Text Only | Print | Product List | Glossary On
Versions: 1 2 3 4 5 6 7 8 9 10 11 12 13 14 15 16 17 18 19
623
FTUS45 KRIW 292033 AAB
TAFRIW
TAF AMD
KRIW 292033Z 2921/3018 06008KT P6SM VCSH BKN040
      TEMPO 2921/2923 3SM -SN BKN030
     FM300300 03008KT P6SM VCSH BKN020
     FM301200 04007KT 3SM -SHSN SCT010 BKN015
     FM301600 07008KT 4SM -SHRASN OVC012=

USA.gov is the U.S. government's official web portal to all federal, state and local government web resources and services.